createdAt,value
2019-06-08T00:00:43.535Z,95791.6
2019-06-08T00:01:45.690Z,95789.3
2019-06-08T00:02:48.114Z,95790.2
2019-06-08T00:03:50.249Z,95780.2
2019-06-08T00:04:52.411Z,95779.5
2019-06-08T00:05:54.865Z,95780
2019-06-08T00:06:57.272Z,95784.6
2019-06-08T00:07:59.153Z,95781.1
2019-06-08T00:09:01.315Z,95781.1
2019-06-08T00:10:03.475Z,95781.1
2019-06-08T00:11:05.645Z,95782.4
2019-06-08T00:12:08.020Z,95780.6
2019-06-08T00:13:10.348Z,95779.6
2019-06-08T00:14:15.655Z,95779.7
2019-06-08T00:15:22.789Z,95785
2019-06-08T00:16:26.383Z,95783.2
2019-06-08T00:18:33.790Z,95784.5
2019-06-08T00:19:36.223Z,95786.1
2019-06-08T00:20:38.655Z,95788.1
2019-06-08T00:21:40.827Z,95790.5
2019-06-08T00:22:43.264Z,95786
2019-06-08T00:23:45.407Z,95789.1
2019-06-08T00:24:47.829Z,95786
2019-06-08T00:25:49.982Z,95788.2
2019-06-08T00:26:52.415Z,95789.1
2019-06-08T00:27:54.574Z,95790.8
2019-06-08T00:28:56.734Z,95796.2
2019-06-08T00:29:59.164Z,95799
2019-06-08T00:31:01.595Z,95795.9
2019-06-08T00:32:04.021Z,95798.7
2019-06-08T00:33:06.451Z,95793.8
2019-06-08T00:34:08.643Z,95794.3
2019-06-08T00:35:10.512Z,95798
2019-06-08T00:36:12.946Z,95799.5
2019-06-08T00:37:20.721Z,95804.8
2019-06-08T00:38:25.653Z,95808.8
2019-06-08T00:39:28.079Z,95807.7
2019-06-08T00:40:30.507Z,95810.7
2019-06-08T00:41:32.934Z,95817.3
2019-06-08T00:42:35.103Z,95816.3
2019-06-08T00:43:37.531Z,95819.5
2019-06-08T00:44:39.968Z,95820.3
2019-06-08T00:45:42.394Z,95825.1
2019-06-08T00:46:44.826Z,95832.9
2019-06-08T00:48:52.224Z,95827.7
2019-06-08T00:49:54.101Z,95828
2019-06-08T00:50:56.276Z,95824.5
2019-06-08T00:51:58.705Z,95830.2
2019-06-08T00:53:01.151Z,95831.9
2019-06-08T00:54:03.318Z,95833.1
2019-06-08T00:55:05.751Z,95839.2
2019-06-08T00:56:08.172Z,95833.6
2019-06-08T00:57:10.306Z,95837.4
2019-06-08T00:58:12.804Z,95837.1
2019-06-08T00:59:15.237Z,95844.1
2019-06-08T01:00:20.275Z,95845.3
2019-06-08T01:02:30.089Z,95850.7
2019-06-08T01:03:32.510Z,95853.4
2019-06-08T01:04:34.935Z,95848.9
2019-06-08T01:05:37.363Z,95853.3
2019-06-08T01:06:39.247Z,95858.4
2019-06-08T01:07:41.670Z,95856.9
2019-06-08T01:08:44.113Z,95858.9
2019-06-08T01:09:46.541Z,95857.4
2019-06-08T01:10:48.964Z,95863.7
2019-06-08T01:11:51.152Z,95862.6
2019-06-08T01:12:53.327Z,95862.4
2019-06-08T01:13:55.744Z,95864.4
2019-06-08T01:14:57.904Z,95866.4
2019-06-08T01:15:59.782Z,95868.7
2019-06-08T01:17:02.267Z,95868.9
2019-06-08T01:18:05.821Z,95873.3
2019-06-08T01:19:07.981Z,95871.3
2019-06-08T01:20:10.141Z,95874.4
2019-06-08T01:21:12.282Z,95870.6
2019-06-08T01:22:14.704Z,95875.3
2019-06-08T01:23:17.123Z,95879
2019-06-08T01:24:21.536Z,95875.7
2019-06-08T01:25:26.276Z,95883.1
2019-06-08T01:26:31.186Z,95885
2019-06-08T01:27:33.339Z,95893.8
2019-06-08T01:28:35.767Z,95891.4
2019-06-08T01:29:38.189Z,95896.7
2019-06-08T01:30:40.623Z,95896.3
2019-06-08T01:31:42.768Z,95898.1
2019-06-08T01:32:44.953Z,95894.3
2019-06-08T01:33:47.986Z,95890.5
2019-06-08T01:34:50.195Z,95894.9
2019-06-08T01:35:52.699Z,95893.5
2019-06-08T01:36:55.121Z,95891.5
2019-06-08T01:37:57.554Z,95893.8
2019-06-08T01:38:59.713Z,95891.9
2019-06-08T01:40:01.590Z,95897.1
2019-06-08T01:41:03.779Z,95898.1
2019-06-08T01:42:06.206Z,95899.5
2019-06-08T01:43:08.632Z,95899.8
2019-06-08T01:44:11.074Z,95895.1
2019-06-08T01:45:13.507Z,95892.9
2019-06-08T01:46:15.947Z,95886.3
2019-06-08T01:47:18.377Z,95886.8
2019-06-08T01:48:24.536Z,95888.7
2019-06-08T01:49:30.545Z,95892.6
2019-06-08T01:50:34.741Z,95893
2019-06-08T01:51:36.903Z,95885.8
2019-06-08T01:52:39.083Z,95884.3
2019-06-08T01:53:41.233Z,95891.8
2019-06-08T01:54:43.667Z,95890.4
2019-06-08T01:55:45.835Z,95891.3
2019-06-08T01:56:48.269Z,95891.2
2019-06-08T01:57:50.712Z,95891.8
2019-06-08T01:58:53.142Z,95896
2019-06-08T01:59:55.295Z,95899.3
2019-06-08T02:00:57.723Z,95900.7
2019-06-08T02:01:59.851Z,95903.2
2019-06-08T02:03:02.007Z,95903
2019-06-08T02:04:04.443Z,95903
2019-06-08T02:05:06.318Z,95909.5
2019-06-08T02:06:07.917Z,95909.3
2019-06-08T02:07:10.043Z,95910.7
2019-06-08T02:08:12.206Z,95915.3
2019-06-08T02:09:14.636Z,95916.4
2019-06-08T02:10:17.075Z,95923.2
2019-06-08T02:11:19.688Z,95916.8
2019-06-08T02:12:21.843Z,95924.3
2019-06-08T02:13:26.781Z,95925.9
2019-06-08T02:14:33.240Z,95927.3
2019-06-08T02:15:36.774Z,95928.9
2019-06-08T02:16:39.238Z,95930.5
2019-06-08T02:17:41.363Z,95934.7
2019-06-08T02:19:48.781Z,95929.2
2019-06-08T02:20:51.214Z,95934.7
2019-06-08T02:21:53.646Z,95930.9
2019-06-08T02:22:56.071Z,95930.5
2019-06-08T02:23:58.506Z,95934.2
2019-06-08T02:25:00.927Z,95937.7
2019-06-08T02:26:03.065Z,95939.9
2019-06-08T02:27:05.221Z,95937.8
2019-06-08T02:28:06.815Z,95936.7
2019-06-08T02:29:09.273Z,95940.4
2019-06-08T02:30:11.702Z,95941.2
2019-06-08T02:31:14.126Z,95945.8
2019-06-08T02:32:16.559Z,95941.7
2019-06-08T02:33:18.717Z,95943
2019-06-08T02:34:21.142Z,95944
2019-06-08T02:35:23.560Z,95941.6
2019-06-08T02:36:25.726Z,95947.4
2019-06-08T02:37:35.269Z,95942.3
2019-06-08T02:38:42.334Z,95948.3
2019-06-08T02:39:44.485Z,95948.4
2019-06-08T02:40:46.645Z,95947.5
2019-06-08T02:41:49.088Z,95947.6
2019-06-08T02:42:51.517Z,95947.7
2019-06-08T02:43:53.377Z,95945.8
2019-06-08T02:44:55.527Z,95950.1
2019-06-08T02:45:57.728Z,95952.2
2019-06-08T02:46:59.894Z,95955.6
2019-06-08T02:48:02.047Z,95955.2
2019-06-08T02:49:06.080Z,95958.9
2019-06-08T02:50:08.500Z,95959.9
2019-06-08T02:51:10.937Z,95962.9
2019-06-08T02:52:13.366Z,95961.3
2019-06-08T02:53:15.523Z,95961.2
2019-06-08T02:54:17.998Z,95964.3
2019-06-08T02:55:20.418Z,95964.7
2019-06-08T02:56:22.859Z,95965
2019-06-08T02:57:25.015Z,95967.7
2019-06-08T02:58:29.088Z,95964.3
2019-06-08T02:59:37.773Z,95966.1
2019-06-08T03:00:44.631Z,95965.2
2019-06-08T03:01:45.971Z,95968.2
2019-06-08T03:02:48.129Z,95972.2
2019-06-08T03:03:50.295Z,95968.4
2019-06-08T03:04:52.744Z,95970.9
2019-06-08T03:05:55.173Z,95974.1
2019-06-08T03:06:57.604Z,95970.4
2019-06-08T03:07:59.773Z,95975.3
2019-06-08T03:09:01.676Z,95981.8
2019-06-08T03:10:03.845Z,95983.4
2019-06-08T03:11:05.980Z,95985.9
2019-06-08T03:12:08.461Z,95986
2019-06-08T03:13:10.352Z,95988
2019-06-08T03:14:12.508Z,95991.1
2019-06-08T03:15:14.659Z,95992.1
2019-06-08T03:16:16.815Z,95994.8
2019-06-08T03:17:18.958Z,95996.4
2019-06-08T03:18:21.435Z,95994.8
2019-06-08T03:19:25.248Z,95994.3
2019-06-08T03:20:27.703Z,95994.6
2019-06-08T03:21:31.383Z,95994
2019-06-08T03:23:44.944Z,95995.5
2019-06-08T03:24:47.092Z,95992.5
2019-06-08T03:26:53.684Z,95998.1
2019-06-08T03:27:56.109Z,96006.2
2019-06-08T03:28:57.994Z,96004.7
2019-06-08T03:29:59.896Z,96011.3
2019-06-08T03:31:02.328Z,96007.7
2019-06-08T03:32:04.817Z,96009.4
2019-06-08T03:33:07.309Z,96010.2
2019-06-08T03:34:09.473Z,96008.4
2019-06-08T03:35:11.926Z,96008.6
2019-06-08T03:36:14.272Z,96011
2019-06-08T03:37:16.406Z,96007.4
2019-06-08T03:38:18.263Z,96009.7
2019-06-08T03:39:20.500Z,96010
2019-06-08T03:40:22.671Z,96012.8
2019-06-08T03:41:24.816Z,96014.2
2019-06-08T03:42:27.252Z,96019.7
2019-06-08T03:43:29.674Z,96020.1
2019-06-08T03:44:31.553Z,96024.6
2019-06-08T03:45:40.643Z,96016.8
2019-06-08T03:47:49.982Z,96023.5
2019-06-08T03:48:52.403Z,96026.1
2019-06-08T03:50:59.576Z,96033
2019-06-08T03:52:01.987Z,96035.3
2019-06-08T03:53:04.122Z,96029.7
2019-06-08T03:54:06.260Z,96038.6
2019-06-08T03:55:08.145Z,96038.1
2019-06-08T03:56:10.305Z,96037.6
2019-06-08T03:57:12.464Z,96038.6
2019-06-08T03:58:15.008Z,96039.2
2019-06-08T03:59:17.432Z,96037.8
2019-06-08T04:00:19.040Z,96041.9
2019-06-08T04:01:21.489Z,96045.2
2019-06-08T04:02:23.915Z,96046.1
2019-06-08T04:03:26.083Z,96052.1
2019-06-08T04:04:27.967Z,96056.3
2019-06-08T04:05:30.395Z,96053.3
2019-06-08T04:06:32.825Z,96054.7
2019-06-08T04:07:34.724Z,96055.2
2019-06-08T04:09:46.602Z,96054.7
2019-06-08T04:10:50.694Z,96050.9
2019-06-08T04:11:52.839Z,96060
2019-06-08T04:12:54.997Z,96063.8
2019-06-08T04:13:57.155Z,96057.1
2019-06-08T04:14:59.335Z,96064.1
2019-06-08T04:16:01.768Z,96059.8
2019-06-08T04:17:03.953Z,96061.7
2019-06-08T04:18:05.845Z,96061.4
2019-06-08T04:19:08.276Z,96062.1
2019-06-08T04:21:15.150Z,96067.5
2019-06-08T04:22:17.311Z,96066.7
2019-06-08T04:23:19.741Z,96065.8
2019-06-08T04:24:21.895Z,96065.8
2019-06-08T04:25:24.326Z,96074.4
2019-06-08T04:26:26.483Z,96071.7
2019-06-08T04:27:28.625Z,96076.2
2019-06-08T04:28:30.759Z,96072.6
2019-06-08T04:29:33.180Z,96073.3
2019-06-08T04:30:35.617Z,96070.5
2019-06-08T04:31:43.777Z,96076.8
2019-06-08T04:32:50.729Z,96081.5
2019-06-08T04:33:52.880Z,96080.1
2019-06-08T04:34:55.321Z,96081.8
2019-06-08T04:35:57.755Z,96083
2019-06-08T04:37:00.737Z,96082.2
2019-06-08T04:38:02.899Z,96080.4
2019-06-08T04:39:04.517Z,96081.7
2019-06-08T04:40:06.946Z,96087
2019-06-08T04:41:09.095Z,96079.6
2019-06-08T04:42:11.523Z,96085.6
2019-06-08T04:43:13.695Z,96084.7
2019-06-08T04:44:16.143Z,96088.3
2019-06-08T04:45:18.594Z,96092.2
2019-06-08T04:46:20.477Z,96091.4
2019-06-08T04:47:22.637Z,96090.3
2019-06-08T04:48:24.783Z,96095.1
2019-06-08T04:49:26.924Z,96096.8
2019-06-08T04:50:29.340Z,96096.1
2019-06-08T04:51:31.762Z,96095.7
2019-06-08T04:52:33.929Z,96099
2019-06-08T04:53:36.067Z,96102.4
2019-06-08T04:54:44.972Z,96102.1
2019-06-08T04:55:50.568Z,96106.9
2019-06-08T04:56:53.019Z,96109.3
2019-06-08T04:57:55.443Z,96111.2
2019-06-08T04:58:57.598Z,96115
2019-06-08T04:59:59.743Z,96118.9
2019-06-08T05:01:01.626Z,96119.9
2019-06-08T05:02:03.764Z,96121.9
2019-06-08T05:03:05.929Z,96124.5
2019-06-08T05:04:08.350Z,96127.4
2019-06-08T05:05:10.803Z,96124
2019-06-08T05:06:13.226Z,96126.5
2019-06-08T05:07:15.393Z,96126.1
2019-06-08T05:08:17.576Z,96126.8
2019-06-08T05:09:19.729Z,96128.4
2019-06-08T05:10:22.206Z,96130.6
2019-06-08T05:11:24.352Z,96132.9
2019-06-08T05:12:26.506Z,96131.8
2019-06-08T05:13:28.360Z,96136.3
2019-06-08T05:14:30.782Z,96133.5
2019-06-08T05:15:32.646Z,96131.9
2019-06-08T05:16:34.834Z,96131.4
2019-06-08T05:17:37.009Z,96140
2019-06-08T05:18:45.268Z,96139
2019-06-08T05:20:54.476Z,96143.4
2019-06-08T05:21:56.912Z,96143.2
2019-06-08T05:22:59.352Z,96145.7
2019-06-08T05:24:01.778Z,96144.7
2019-06-08T05:25:04.221Z,96146.3
2019-06-08T05:26:06.359Z,96144.9
2019-06-08T05:27:08.793Z,96147
2019-06-08T05:28:11.236Z,96143.8
2019-06-08T05:29:13.379Z,96147.2
2019-06-08T05:30:15.809Z,96151.1
2019-06-08T05:31:18.234Z,96149
2019-06-08T05:32:20.674Z,96156.4
2019-06-08T05:33:23.124Z,96154.7
2019-06-08T05:34:25.591Z,96155.1
2019-06-08T05:35:28.039Z,96157.2
2019-06-08T05:36:30.196Z,96162.9
2019-06-08T05:37:32.836Z,96163.4
2019-06-08T05:38:35.269Z,96161.8
2019-06-08T05:39:37.694Z,96162.6
2019-06-08T05:40:43.554Z,96168.3
2019-06-08T05:41:47.584Z,96165
2019-06-08T05:42:51.354Z,96168.3
2019-06-08T05:43:53.545Z,96171.8
2019-06-08T05:44:55.977Z,96176.7
2019-06-08T05:45:58.139Z,96174.5
2019-06-08T05:47:00.009Z,96178.1
2019-06-08T05:48:01.337Z,96176.3
2019-06-08T05:49:03.218Z,96176.9
2019-06-08T05:50:05.638Z,96178.5
2019-06-08T05:51:07.789Z,96185.7
2019-06-08T05:52:09.933Z,96183.4
2019-06-08T05:53:12.087Z,96180.4
2019-06-08T05:54:14.501Z,96179.3
2019-06-08T05:55:16.386Z,96180.7
2019-06-08T05:56:18.825Z,96186.8
2019-06-08T05:57:20.714Z,96190.1
2019-06-08T05:58:22.873Z,96191.5
2019-06-08T05:59:25.291Z,96194.2
2019-06-08T06:00:27.442Z,96198.1
2019-06-08T06:01:29.303Z,96199.2
2019-06-08T06:02:31.725Z,96200.3
2019-06-08T06:03:33.582Z,96199.2
2019-06-08T06:04:36.105Z,96198
2019-06-08T06:05:38.536Z,96202.4
2019-06-08T06:06:44.481Z,96201.1
2019-06-08T06:07:49.510Z,96202.9
2019-06-08T06:08:52.901Z,96202.6
2019-06-08T06:09:55.105Z,96209.4
2019-06-08T06:10:57.256Z,96210.9
2019-06-08T06:11:59.447Z,96211.9
2019-06-08T06:13:01.322Z,96212.2
2019-06-08T06:14:03.199Z,96213.4
2019-06-08T06:15:05.629Z,96210.5
2019-06-08T06:16:07.504Z,96215.3
2019-06-08T06:17:09.930Z,96216.6
2019-06-08T06:18:12.373Z,96215.9
2019-06-08T06:19:14.802Z,96219.5
2019-06-08T06:20:17.235Z,96217.3
2019-06-08T06:21:19.403Z,96226.1
2019-06-08T06:22:21.824Z,96224
2019-06-08T06:23:24.241Z,96222.7
2019-06-08T06:24:26.385Z,96230.8
2019-06-08T06:25:28.823Z,96229.3
2019-06-08T06:26:30.984Z,96229.6
2019-06-08T06:27:33.154Z,96229
2019-06-08T06:28:35.327Z,96230.1
2019-06-08T06:29:37.752Z,96226.9
2019-06-08T06:30:41.303Z,96225.4
2019-06-08T06:31:45.773Z,96228.9
2019-06-08T06:32:52.380Z,96233.1
2019-06-08T06:33:54.818Z,96233.9
2019-06-08T06:34:56.987Z,96234.5
2019-06-08T06:35:59.155Z,96236
2019-06-08T06:37:01.332Z,96238.1
2019-06-08T06:38:03.590Z,96233.6
2019-06-08T06:39:06.035Z,96231
2019-06-08T06:40:08.488Z,96229.1
2019-06-08T06:41:10.651Z,96232.9
2019-06-08T06:42:13.092Z,96231.8
2019-06-08T06:43:14.710Z,96237.6
2019-06-08T06:44:17.130Z,96236.3
2019-06-08T06:45:19.294Z,96235.1
2019-06-08T06:46:21.448Z,96239
2019-06-08T06:47:23.603Z,96238.4
2019-06-08T06:48:26.087Z,96242.1
2019-06-08T06:49:28.243Z,96247
2019-06-08T06:50:30.680Z,96242.7
2019-06-08T06:52:37.260Z,96252.6
2019-06-08T06:53:39.397Z,96252.1
2019-06-08T06:54:43.024Z,96253.8
2019-06-08T06:55:48.976Z,96259.4
2019-06-08T06:56:54.495Z,96262.3
2019-06-08T06:57:56.637Z,96264.7
2019-06-08T06:58:59.075Z,96265.5
2019-06-08T07:00:02.604Z,96265.7
2019-06-08T07:01:05.038Z,96266.8
2019-06-08T07:02:07.236Z,96267
2019-06-08T07:03:09.690Z,96269.3
2019-06-08T07:04:11.842Z,96269.6
2019-06-08T07:05:13.712Z,96267.3
2019-06-08T07:06:15.614Z,96265.3
2019-06-08T07:07:18.040Z,96266.3
2019-06-08T07:08:20.207Z,96269
2019-06-08T07:09:22.966Z,96274
2019-06-08T07:10:25.096Z,96272
2019-06-08T07:11:27.543Z,96267.8
2019-06-08T07:12:29.970Z,96273.4
2019-06-08T07:13:32.418Z,96274.8
2019-06-08T07:14:34.576Z,96273.5
2019-06-08T07:16:42.007Z,96274.9
2019-06-08T07:17:45.937Z,96277.7
2019-06-08T07:18:52.397Z,96277.8
2019-06-08T07:19:56.424Z,96276.3
2019-06-08T07:20:59.552Z,96275.8
2019-06-08T07:22:01.985Z,96271.8
2019-06-08T07:23:04.426Z,96270.6
2019-06-08T07:24:06.582Z,96273.6
2019-06-08T07:25:08.739Z,96274.7
2019-06-08T07:26:11.227Z,96277.4
2019-06-08T07:27:13.444Z,96277.9
2019-06-08T07:28:15.597Z,96277.3
2019-06-08T07:29:17.491Z,96275.6
2019-06-08T07:30:19.427Z,96284.6
2019-06-08T07:31:21.876Z,96284.2
2019-06-08T07:32:24.294Z,96285.8
2019-06-08T07:33:26.442Z,96283.9
2019-06-08T07:34:28.617Z,96286.9
2019-06-08T07:35:31.048Z,96284.2
2019-06-08T07:36:33.487Z,96286.9
2019-06-08T07:37:35.842Z,96291.9
2019-06-08T07:38:38.096Z,96292.1
2019-06-08T07:39:40.536Z,96295
2019-06-08T07:40:42.992Z,96290.8
2019-06-08T07:41:45.142Z,96293.6
2019-06-08T07:43:54.678Z,96288.9
2019-06-08T07:45:00.192Z,96287
2019-06-08T07:46:02.526Z,96286.8
2019-06-08T07:47:04.688Z,96286.3
2019-06-08T07:48:07.130Z,96288.1
2019-06-08T07:49:09.032Z,96287
2019-06-08T07:50:11.474Z,96282.7
2019-06-08T07:51:13.619Z,96286.6
2019-06-08T07:52:16.047Z,96287.3
2019-06-08T07:53:18.812Z,96288.1
2019-06-08T07:54:20.958Z,96281.2
2019-06-08T07:55:23.268Z,96285.5
2019-06-08T07:56:25.550Z,96284.9
2019-06-08T07:57:28.031Z,96287.1
2019-06-08T07:58:30.494Z,96285.3
2019-06-08T07:59:33.108Z,96285.2
2019-06-08T08:00:35.539Z,96280.8
2019-06-08T08:01:37.705Z,96282.7
2019-06-08T08:02:40.134Z,96286.3
2019-06-08T08:03:42.768Z,96289.5
2019-06-08T08:04:45.380Z,96290.4
2019-06-08T08:05:50.351Z,96286.4
2019-06-08T08:06:58.383Z,96284.4
2019-06-08T08:08:00.958Z,96289.6
2019-06-08T08:09:03.084Z,96291.1
2019-06-08T08:10:05.711Z,96291.9
2019-06-08T08:11:08.359Z,96286.7
2019-06-08T08:13:15.792Z,96294.5
2019-06-08T08:14:17.644Z,96293.1
2019-06-08T08:15:20.292Z,96292.8
2019-06-08T08:16:22.160Z,96296.9
2019-06-08T08:17:24.335Z,96298.1
2019-06-08T08:18:26.206Z,96298.3
2019-06-08T08:19:28.371Z,96299.5
2019-06-08T08:20:30.563Z,96298.6
2019-06-08T08:21:32.729Z,96294.1
2019-06-08T08:22:35.142Z,96291.9
2019-06-08T08:23:42.649Z,96294.3
2019-06-08T08:24:45.004Z,96296.5
2019-06-08T08:25:55.190Z,96297.8
2019-06-08T08:28:02.973Z,96300.9
2019-06-08T08:29:05.586Z,96303.2
2019-06-08T08:30:12.496Z,96304.6
2019-06-08T08:32:22.334Z,96304.4
2019-06-08T08:33:24.766Z,96305.1
2019-06-08T08:34:31.702Z,96310.2
2019-06-08T08:35:34.506Z,96310.6
2019-06-08T08:37:41.574Z,96318.2
2019-06-08T08:38:43.730Z,96314.8
2019-06-08T08:39:50.068Z,96315.9
2019-06-08T08:43:06.372Z,96321.1
2019-06-08T08:44:14.038Z,96317.8
2019-06-08T08:46:21.936Z,96324.2
2019-06-08T08:47:24.375Z,96321.6
2019-06-08T08:49:31.508Z,96326
2019-06-08T08:50:33.941Z,96323.5
2019-06-08T08:52:42.541Z,96319.4
2019-06-08T08:53:44.689Z,96318.3
2019-06-08T08:54:50.734Z,96319
2019-06-08T08:55:57.857Z,96322
2019-06-08T08:59:12.224Z,96322.4
2019-06-08T09:00:14.129Z,96325.8
2019-06-08T09:02:22.316Z,96327.6
2019-06-08T09:04:29.477Z,96328.3
2019-06-08T09:05:32.532Z,96322.4
2019-06-08T09:06:34.975Z,96323.8
2019-06-08T09:07:41.883Z,96325.2
2019-06-08T09:08:44.341Z,96324.9
2019-06-08T09:10:58.366Z,96324.7
2019-06-08T09:16:22.733Z,96323.4
2019-06-08T09:17:25.176Z,96324
2019-06-08T09:18:31.813Z,96321.4
2019-06-08T09:19:33.694Z,96321
2019-06-08T09:21:41.533Z,96323.4
2019-06-08T09:23:52.268Z,96322.7
2019-06-08T09:28:12.447Z,96329.1
2019-06-08T09:29:14.651Z,96331.1
2019-06-08T09:31:22.054Z,96333.5
2019-06-08T09:32:24.226Z,96337
2019-06-08T09:34:32.567Z,96347.8
2019-06-08T09:35:37.719Z,96346.3
2019-06-08T09:36:42.296Z,96347
2019-06-08T09:37:44.734Z,96349.9
2019-06-08T09:38:49.442Z,96347.1
2019-06-08T09:42:09.780Z,96350.9
2019-06-08T09:43:14.765Z,96348.2
2019-06-08T09:44:23.723Z,96354.3
2019-06-08T09:45:28.775Z,96348.3
2019-06-08T09:46:32.375Z,96349.8
2019-06-08T09:47:34.859Z,96344.4
2019-06-08T09:48:41.767Z,96347
2019-06-08T09:49:43.944Z,96345.5
2019-06-08T09:50:48.495Z,96346.8
2019-06-08T09:56:12.995Z,96349.4
2019-06-08T09:57:14.601Z,96348.8
2019-06-08T09:59:22.254Z,96347.8
2019-06-08T10:01:30.406Z,96350
2019-06-08T10:02:33.057Z,96345.9
2019-06-08T10:03:35.512Z,96340.3
2019-06-08T10:04:42.423Z,96339.6
2019-06-08T10:05:44.293Z,96344.3
2019-06-08T10:07:52.300Z,96344.9
2019-06-08T10:08:58.704Z,96347
2019-06-08T10:12:12.642Z,96344.7
2019-06-08T10:13:14.869Z,96350
2019-06-08T10:15:22.006Z,96346.1
2019-06-08T10:16:24.465Z,96348.1
2019-06-08T10:17:31.419Z,96346.7
2019-06-08T10:18:33.857Z,96347.1
2019-06-08T10:19:35.991Z,96342.1
2019-06-08T10:20:39.636Z,96342.9
2019-06-08T10:23:51.785Z,96344
2019-06-08T10:26:07.119Z,96343.1
2019-06-08T10:29:20.032Z,96342.8
2019-06-08T10:30:22.515Z,96337.5
2019-06-08T10:32:29.846Z,96340.8
2019-06-08T10:33:32.336Z,96340.3
2019-06-08T10:34:34.228Z,96344.2
2019-06-08T10:36:42.131Z,96343.2
2019-06-08T10:37:44.301Z,96343
2019-06-08T10:39:51.433Z,96342.9
2019-06-08T10:40:53.294Z,96343.6
2019-06-08T10:41:57.453Z,96342.1
2019-06-08T10:46:22.318Z,96339.5
2019-06-08T10:47:24.758Z,96340.8
2019-06-08T10:48:31.328Z,96343.9
2019-06-08T10:49:33.483Z,96344.5
2019-06-08T10:50:35.917Z,96347.4
2019-06-08T10:52:43.058Z,96343.7
2019-06-08T10:54:50.482Z,96342.3
2019-06-08T10:55:52.941Z,96346.8
2019-06-08T10:56:55.136Z,96343.9
2019-06-08T10:58:06.304Z,96353.8
2019-06-08T10:59:14.451Z,96348
2019-06-08T11:01:22.026Z,96350.3
2019-06-08T11:02:24.454Z,96347.7
2019-06-08T11:04:32.007Z,96344.7
2019-06-08T11:05:34.197Z,96342.8
2019-06-08T11:07:41.805Z,96342.3
2019-06-08T11:08:44.241Z,96344.1
2019-06-08T11:10:52.750Z,96338
2019-06-08T11:15:13.369Z,96343.5
2019-06-08T11:17:20.727Z,96333.4
2019-06-08T11:18:23.170Z,96330.6
2019-06-08T11:19:27.935Z,96327.8
2019-06-08T11:20:31.932Z,96330.2
2019-06-08T11:21:34.357Z,96325.9
2019-06-08T11:22:36.525Z,96326.3
2019-06-08T11:24:48.401Z,96324.6
2019-06-08T11:25:52.464Z,96329
2019-06-08T11:26:54.660Z,96328.7
2019-06-08T11:31:21.323Z,96327.5
2019-06-08T11:32:23.766Z,96328
2019-06-08T11:33:30.131Z,96322.1
2019-06-08T11:34:32.373Z,96322.2
2019-06-08T11:35:34.833Z,96325.2
2019-06-08T11:37:42.661Z,96315.4
2019-06-08T11:38:44.825Z,96318.6
2019-06-08T11:39:51.725Z,96323.3
2019-06-08T11:40:54.096Z,96317.3
2019-06-08T11:41:58.640Z,96320.3
2019-06-08T11:43:06.370Z,96318
2019-06-08T11:46:23.790Z,96310.6
2019-06-08T11:48:31.717Z,96313.6
2019-06-08T11:49:34.145Z,96310.6
2019-06-08T11:51:42.506Z,96308
2019-06-08T11:52:44.989Z,96302.3
2019-06-08T11:54:52.589Z,96302.7
2019-06-08T11:55:54.754Z,96299.1
2019-06-08T11:56:59.046Z,96300.9
2019-06-08T11:58:04.828Z,96303.1
2019-06-08T12:01:20.057Z,96302.6
2019-06-08T12:02:22.488Z,96304.3
2019-06-08T12:03:24.916Z,96301.9
2019-06-08T12:04:31.818Z,96304
2019-06-08T12:05:33.680Z,96301.6
2019-06-08T12:07:41.305Z,96302.6
2019-06-08T12:08:43.834Z,96299.5
2019-06-08T12:10:52.416Z,96307.3
2019-06-08T12:11:54.376Z,96304
2019-06-08T12:12:58.598Z,96306.8
2019-06-08T12:14:00.827Z,96303.4
2019-06-08T12:15:08.502Z,96303.3
2019-06-08T12:18:21.914Z,96300.3
2019-06-08T12:19:24.063Z,96304
2019-06-08T12:21:31.954Z,96295.2
2019-06-08T12:22:34.378Z,96292
2019-06-08T12:23:36.801Z,96290.8
2019-06-08T12:25:43.964Z,96291.1
2019-06-08T12:34:23.054Z,96293
2019-06-08T12:35:25.693Z,96287.9
2019-06-08T12:36:31.982Z,96291.2
2019-06-08T12:37:34.126Z,96291
2019-06-08T12:39:42.025Z,96292.9
2019-06-08T12:40:44.469Z,96282.7
2019-06-08T12:42:51.866Z,96281.1
2019-06-08T12:43:54.471Z,96276.9
2019-06-08T12:46:02.084Z,96276.3
2019-06-08T12:47:04.553Z,96277.8
2019-06-08T12:50:21.586Z,96272.7
2019-06-08T12:51:23.747Z,96279.5
2019-06-08T12:53:31.646Z,96271.9
2019-06-08T12:54:34.084Z,96277.2
2019-06-08T12:56:41.494Z,96279.5
2019-06-08T12:57:43.939Z,96272.5
2019-06-08T12:59:51.544Z,96279.1
2019-06-08T13:00:53.704Z,96275.4
2019-06-08T13:01:58.524Z,96275.7
2019-06-08T13:03:02.544Z,96274.4
2019-06-08T13:04:04.980Z,96271.2
2019-06-08T13:07:20.761Z,96265
2019-06-08T13:08:23.054Z,96265.7
2019-06-08T13:09:29.560Z,96267.6
2019-06-08T13:10:31.934Z,96271.9
2019-06-08T13:11:34.090Z,96268.5
2019-06-08T13:12:40.372Z,96266
2019-06-08T13:13:42.969Z,96272.6
2019-06-08T13:14:47.696Z,96270.5
2019-06-08T13:15:51.827Z,96275.6
2019-06-08T13:16:54.439Z,96275.5
2019-06-08T13:19:02.396Z,96268
2019-06-08T13:20:04.820Z,96269.9
2019-06-08T13:23:22.845Z,96259.9
2019-06-08T13:24:25.306Z,96258.5
2019-06-08T13:26:32.412Z,96266
2019-06-08T13:27:34.835Z,96269
2019-06-08T13:29:42.206Z,96266.1
2019-06-08T13:30:44.365Z,96267.6
2019-06-08T13:31:46.795Z,96264.2
2019-06-08T13:32:49.789Z,96273.1
2019-06-08T13:33:51.951Z,96269.6
2019-06-08T13:34:54.589Z,96268.1
2019-06-08T13:36:01.470Z,96269.3
2019-06-08T13:37:03.712Z,96273.7
2019-06-08T13:38:05.863Z,96276.8
2019-06-08T13:39:18.159Z,96278.1
2019-06-08T13:42:31.811Z,96275.7
2019-06-08T13:43:33.980Z,96269.3
2019-06-08T13:45:41.571Z,96274.6
2019-06-08T13:46:43.729Z,96277.3
2019-06-08T13:47:50.077Z,96270.9
2019-06-08T13:48:52.059Z,96265.6
2019-06-08T13:49:54.502Z,96263.8
2019-06-08T13:52:02.602Z,96274.5
2019-06-08T13:53:05.044Z,96266.1
2019-06-08T13:57:26.479Z,96272.9
2019-06-08T13:59:33.648Z,96269.7
2019-06-08T14:00:38.101Z,96268.7
2019-06-08T14:01:42.248Z,96260.8
2019-06-08T14:02:44.443Z,96259.5
2019-06-08T14:04:51.593Z,96257.3
2019-06-08T14:05:54.035Z,96248.2
2019-06-08T14:08:01.929Z,96256.6
2019-06-08T14:09:04.362Z,96256.8
2019-06-08T14:10:06.530Z,96256.8
2019-06-08T14:11:09.793Z,96258
2019-06-08T14:12:12.337Z,96247.9
2019-06-08T14:13:17.795Z,96240.5
2019-06-08T14:14:28.916Z,96243.4
2019-06-08T14:15:33.743Z,96241.1
2019-06-08T14:17:42.431Z,96244.6
2019-06-08T14:18:45.039Z,96243.4
2019-06-08T14:21:56.928Z,96250.2
2019-06-08T14:23:00.415Z,96252.2
2019-06-08T14:24:02.856Z,96256
2019-06-08T14:25:05.050Z,96253.8
2019-06-08T14:26:09.710Z,96249.8
2019-06-08T14:27:11.621Z,96251.8
2019-06-08T14:28:14.637Z,96249.1
2019-06-08T14:30:26.093Z,96245
2019-06-08T14:33:42.037Z,96246.8
2019-06-08T14:34:44.464Z,96239.4
2019-06-08T14:35:47.815Z,96245
2019-06-08T14:36:51.425Z,96239.1
2019-06-08T14:37:53.281Z,96244.9
2019-06-08T14:38:55.709Z,96237.1
2019-06-08T14:40:02.656Z,96249.5
2019-06-08T14:41:07.456Z,96248.8
2019-06-08T14:42:11.521Z,96252.1
2019-06-08T14:43:14.153Z,96241
2019-06-08T14:45:23.122Z,96241.2
2019-06-08T14:47:31.840Z,96242.9
2019-06-08T14:49:42.047Z,96241.8
2019-06-08T14:50:44.653Z,96244.4
2019-06-08T14:51:49.466Z,96235.2
2019-06-08T14:52:51.752Z,96236
2019-06-08T14:53:54.377Z,96238
2019-06-08T14:57:09.405Z,96234.1
2019-06-08T14:58:11.834Z,96234
2019-06-08T14:59:13.994Z,96230.6
2019-06-08T15:00:18.826Z,96230
2019-06-08T15:02:32.403Z,96227.2
2019-06-08T15:03:34.592Z,96228.3
2019-06-08T15:04:41.117Z,96227.4
2019-06-08T15:05:43.767Z,96222.8
2019-06-08T15:06:48.359Z,96225.8
2019-06-08T15:07:52.344Z,96222.4
2019-06-08T15:08:54.792Z,96222.8
2019-06-08T15:11:02.196Z,96219.9
2019-06-08T15:12:04.150Z,96218.8
2019-06-08T15:14:11.577Z,96218
2019-06-08T15:15:14.018Z,96218.1
2019-06-08T15:17:24.337Z,96218.1